sensor_id;sensor_type;location;lat;lon;timestamp;P1;durP1;ratioP1;P2;durP2;ratioP2
42590;SDS011;28218;53.342;-6.216;2022-10-30T00:00:45;11.38;;;2.45;;
42590;SDS011;28218;53.342;-6.216;2022-10-30T00:03:14;12.75;;;2.72;;
42590;SDS011;28218;53.342;-6.216;2022-10-30T00:05:44;17.25;;;2.35;;
42590;SDS011;28218;53.342;-6.216;2022-10-30T00:08:15;13.43;;;3.17;;
42590;SDS011;28218;53.342;-6.216;2022-10-30T00:13:15;13.90;;;1.85;;
42590;SDS011;28218;53.342;-6.216;2022-10-30T00:15:45;13.63;;;1.55;;
42590;SDS011;28218;53.342;-6.216;2022-10-30T00:18:15;12.23;;;1.80;;
42590;SDS011;28218;53.342;-6.216;2022-10-30T00:20:43;12.45;;;1.80;;
42590;SDS011;28218;53.342;-6.216;2022-10-30T00:23:11;10.10;;;2.05;;
42590;SDS011;28218;53.342;-6.216;2022-10-30T00:25:41;13.38;;;2.05;;
42590;SDS011;28218;53.342;-6.216;2022-10-30T00:28:09;7.75;;;1.50;;
42590;SDS011;28218;53.342;-6.216;2022-10-30T00:30:37;12.85;;;2.10;;
42590;SDS011;28218;53.342;-6.216;2022-10-30T00:33:06;14.63;;;2.00;;
42590;SDS011;28218;53.342;-6.216;2022-10-30T00:35:34;15.82;;;2.35;;
42590;SDS011;28218;53.342;-6.216;2022-10-30T00:38:02;16.05;;;2.85;;
42590;SDS011;28218;53.342;-6.216;2022-10-30T00:40:30;14.50;;;2.63;;
42590;SDS011;28218;53.342;-6.216;2022-10-30T00:43:00;15.13;;;2.88;;
42590;SDS011;28218;53.342;-6.216;2022-10-30T00:45:28;12.88;;;1.90;;
42590;SDS011;28218;53.342;-6.216;2022-10-30T00:47:57;15.15;;;2.53;;
42590;SDS011;28218;53.342;-6.216;2022-10-30T00:50:29;17.10;;;2.30;;
42590;SDS011;28218;53.342;-6.216;2022-10-30T00:53:02;11.25;;;2.10;;
42590;SDS011;28218;53.342;-6.216;2022-10-30T00:55:34;21.52;;;2.70;;
42590;SDS011;28218;53.342;-6.216;2022-10-30T00:58:08;22.00;;;4.28;;
42590;SDS011;28218;53.342;-6.216;2022-10-30T01:00:39;13.07;;;2.20;;
42590;SDS011;28218;53.342;-6.216;2022-10-30T01:03:11;20.92;;;3.28;;
42590;SDS011;28218;53.342;-6.216;2022-10-30T01:05:39;17.50;;;3.28;;
42590;SDS011;28218;53.342;-6.216;2022-10-30T01:08:13;23.13;;;3.75;;
42590;SDS011;28218;53.342;-6.216;2022-10-30T01:13:11;21.15;;;3.78;;
42590;SDS011;28218;53.342;-6.216;2022-10-30T01:15:42;18.10;;;2.97;;
42590;SDS011;28218;53.342;-6.216;2022-10-30T01:18:21;15.93;;;3.85;;
42590;SDS011;28218;53.342;-6.216;2022-10-30T01:21:10;19.23;;;3.80;;
42590;SDS011;28218;53.342;-6.216;2022-10-30T01:23:47;19.92;;;2.65;;
42590;SDS011;28218;53.342;-6.216;2022-10-30T01:26:31;9.68;;;2.40;;
42590;SDS011;28218;53.342;-6.216;2022-10-30T01:29:20;13.90;;;2.47;;
42590;SDS011;28218;53.342;-6.216;2022-10-30T01:32:03;16.83;;;2.92;;
42590;SDS011;28218;53.342;-6.216;2022-10-30T01:34:42;24.98;;;3.67;;
42590;SDS011;28218;53.342;-6.216;2022-10-30T01:37:18;29.88;;;4.25;;
42590;SDS011;28218;53.342;-6.216;2022-10-30T01:39:49;23.35;;;2.42;;
42590;SDS011;28218;53.342;-6.216;2022-10-30T01:45:23;21.77;;;3.10;;
42590;SDS011;28218;53.342;-6.216;2022-10-30T01:48:07;17.25;;;2.90;;
42590;SDS011;28218;53.342;-6.216;2022-10-30T01:50:51;22.20;;;2.70;;
42590;SDS011;28218;53.342;-6.216;2022-10-30T01:53:28;27.17;;;4.97;;
42590;SDS011;28218;53.342;-6.216;2022-10-30T01:56:11;21.67;;;4.05;;
42590;SDS011;28218;53.342;-6.216;2022-10-30T01:58:48;24.95;;;2.90;;
42590;SDS011;28218;53.342;-6.216;2022-10-30T02:01:25;13.57;;;2.70;;
42590;SDS011;28218;53.342;-6.216;2022-10-30T02:03:57;22.73;;;3.90;;
42590;SDS011;28218;53.342;-6.216;2022-10-30T02:06:25;14.18;;;3.65;;
42590;SDS011;28218;53.342;-6.216;2022-10-30T02:08:54;17.33;;;2.58;;
42590;SDS011;28218;53.342;-6.216;2022-10-30T02:11:22;17.73;;;3.60;;
42590;SDS011;28218;53.342;-6.216;2022-10-30T02:13:53;20.08;;;3.17;;
42590;SDS011;28218;53.342;-6.216;2022-10-30T02:16:25;22.52;;;3.42;;
42590;SDS011;28218;53.342;-6.216;2022-10-30T02:18:53;23.95;;;3.50;;
42590;SDS011;28218;53.342;-6.216;2022-10-30T02:21:23;13.05;;;2.58;;
42590;SDS011;28218;53.342;-6.216;2022-10-30T02:23:51;19.27;;;2.72;;
42590;SDS011;28218;53.342;-6.216;2022-10-30T02:26:20;27.00;;;3.05;;
42590;SDS011;28218;53.342;-6.216;2022-10-30T02:28:51;19.75;;;3.33;;
42590;SDS011;28218;53.342;-6.216;2022-10-30T02:31:19;16.48;;;3.15;;
42590;SDS011;28218;53.342;-6.216;2022-10-30T02:33:48;29.88;;;2.65;;
42590;SDS011;28218;53.342;-6.216;2022-10-30T02:36:16;26.85;;;4.35;;
42590;SDS011;28218;53.342;-6.216;2022-10-30T02:38:46;29.15;;;3.67;;
42590;SDS011;28218;53.342;-6.216;2022-10-30T02:41:14;25.30;;;4.00;;
42590;SDS011;28218;53.342;-6.216;2022-10-30T02:43:42;19.35;;;3.00;;
42590;SDS011;28218;53.342;-6.216;2022-10-30T02:46:13;22.10;;;3.20;;
42590;SDS011;28218;53.342;-6.216;2022-10-30T02:48:41;20.13;;;3.13;;
42590;SDS011;28218;53.342;-6.216;2022-10-30T02:51:10;21.20;;;2.95;;
42590;SDS011;28218;53.342;-6.216;2022-10-30T02:53:38;23.77;;;2.95;;
42590;SDS011;28218;53.342;-6.216;2022-10-30T02:56:09;18.65;;;2.85;;
42590;SDS011;28218;53.342;-6.216;2022-10-30T02:58:38;21.85;;;2.95;;
42590;SDS011;28218;53.342;-6.216;2022-10-30T03:01:06;13.55;;;2.35;;
42590;SDS011;28218;53.342;-6.216;2022-10-30T03:03:35;22.05;;;3.53;;
42590;SDS011;28218;53.342;-6.216;2022-10-30T03:06:05;19.77;;;3.78;;
42590;SDS011;28218;53.342;-6.216;2022-10-30T03:08:34;18.25;;;3.40;;
42590;SDS011;28218;53.342;-6.216;2022-10-30T03:11:04;26.58;;;3.80;;
42590;SDS011;28218;53.342;-6.216;2022-10-30T03:13:35;23.33;;;3.13;;
42590;SDS011;28218;53.342;-6.216;2022-10-30T03:16:07;31.13;;;6.18;;
42590;SDS011;28218;53.342;-6.216;2022-10-30T03:18:36;21.17;;;3.90;;
42590;SDS011;28218;53.342;-6.216;2022-10-30T03:21:08;19.40;;;3.17;;
42590;SDS011;28218;53.342;-6.216;2022-10-30T03:23:37;25.08;;;4.03;;
42590;SDS011;28218;53.342;-6.216;2022-10-30T03:26:06;30.58;;;3.83;;
42590;SDS011;28218;53.342;-6.216;2022-10-30T03:28:35;28.38;;;3.95;;
42590;SDS011;28218;53.342;-6.216;2022-10-30T03:31:04;24.75;;;2.47;;
42590;SDS011;28218;53.342;-6.216;2022-10-30T03:33:34;18.42;;;3.40;;
42590;SDS011;28218;53.342;-6.216;2022-10-30T03:36:04;29.08;;;3.97;;
42590;SDS011;28218;53.342;-6.216;2022-10-30T03:38:35;30.25;;;3.95;;
42590;SDS011;28218;53.342;-6.216;2022-10-30T03:41:03;30.02;;;5.05;;
42590;SDS011;28218;53.342;-6.216;2022-10-30T03:43:32;18.63;;;4.22;;
42590;SDS011;28218;53.342;-6.216;2022-10-30T03:46:02;21.05;;;3.45;;
42590;SDS011;28218;53.342;-6.216;2022-10-30T03:48:31;21.88;;;3.58;;
42590;SDS011;28218;53.342;-6.216;2022-10-30T03:50:59;26.88;;;5.20;;
42590;SDS011;28218;53.342;-6.216;2022-10-30T03:53:27;29.10;;;3.92;;
42590;SDS011;28218;53.342;-6.216;2022-10-30T03:55:56;29.63;;;3.80;;
42590;SDS011;28218;53.342;-6.216;2022-10-30T03:58:25;14.93;;;2.75;;
42590;SDS011;28218;53.342;-6.216;2022-10-30T04:00:54;19.98;;;3.55;;
42590;SDS011;28218;53.342;-6.216;2022-10-30T04:03:28;21.65;;;3.42;;
42590;SDS011;28218;53.342;-6.216;2022-10-30T04:05:56;20.00;;;2.28;;
42590;SDS011;28218;53.342;-6.216;2022-10-30T04:08:24;20.20;;;3.28;;
42590;SDS011;28218;53.342;-6.216;2022-10-30T04:10:53;24.92;;;4.30;;
42590;SDS011;28218;53.342;-6.216;2022-10-30T04:13:21;15.32;;;2.72;;
42590;SDS011;28218;53.342;-6.216;2022-10-30T04:15:49;15.77;;;2.97;;
42590;SDS011;28218;53.342;-6.216;2022-10-30T04:18:22;17.00;;;2.72;;
42590;SDS011;28218;53.342;-6.216;2022-10-30T04:20:53;20.25;;;2.95;;
42590;SDS011;28218;53.342;-6.216;2022-10-30T04:23:21;17.60;;;2.88;;
42590;SDS011;28218;53.342;-6.216;2022-10-30T04:25:49;13.88;;;1.98;;
42590;SDS011;28218;53.342;-6.216;2022-10-30T04:28:18;9.85;;;2.30;;
42590;SDS011;28218;53.342;-6.216;2022-10-30T04:30:46;20.02;;;2.65;;
42590;SDS011;28218;53.342;-6.216;2022-10-30T04:33:15;14.77;;;3.22;;
42590;SDS011;28218;53.342;-6.216;2022-10-30T04:35:43;19.90;;;2.97;;
42590;SDS011;28218;53.342;-6.216;2022-10-30T04:38:13;20.73;;;3.10;;
42590;SDS011;28218;53.342;-6.216;2022-10-30T04:40:44;14.25;;;3.25;;
42590;SDS011;28218;53.342;-6.216;2022-10-30T04:43:13;22.35;;;3.10;;
42590;SDS011;28218;53.342;-6.216;2022-10-30T04:45:41;18.95;;;3.78;;
42590;SDS011;28218;53.342;-6.216;2022-10-30T04:48:10;17.15;;;2.97;;
42590;SDS011;28218;53.342;-6.216;2022-10-30T04:50:39;21.92;;;3.33;;
42590;SDS011;28218;53.342;-6.216;2022-10-30T04:53:10;22.27;;;3.90;;
42590;SDS011;28218;53.342;-6.216;2022-10-30T04:55:41;19.55;;;3.05;;
42590;SDS011;28218;53.342;-6.216;2022-10-30T04:58:10;18.95;;;2.95;;
42590;SDS011;28218;53.342;-6.216;2022-10-30T05:00:39;17.77;;;2.72;;
42590;SDS011;28218;53.342;-6.216;2022-10-30T05:03:08;10.60;;;1.80;;
42590;SDS011;28218;53.342;-6.216;2022-10-30T05:05:45;5.32;;;1.33;;
42590;SDS011;28218;53.342;-6.216;2022-10-30T05:08:14;8.48;;;1.33;;
42590;SDS011;28218;53.342;-6.216;2022-10-30T05:10:43;10.15;;;1.60;;
42590;SDS011;28218;53.342;-6.216;2022-10-30T05:13:11;7.90;;;1.88;;
42590;SDS011;28218;53.342;-6.216;2022-10-30T05:15:40;5.70;;;1.33;;
42590;SDS011;28218;53.342;-6.216;2022-10-30T05:18:08;12.27;;;2.17;;
42590;SDS011;28218;53.342;-6.216;2022-10-30T05:20:36;8.88;;;2.17;;
42590;SDS011;28218;53.342;-6.216;2022-10-30T05:23:04;14.38;;;2.35;;
42590;SDS011;28218;53.342;-6.216;2022-10-30T05:25:32;10.10;;;1.95;;
42590;SDS011;28218;53.342;-6.216;2022-10-30T05:28:03;9.63;;;1.85;;
42590;SDS011;28218;53.342;-6.216;2022-10-30T05:30:33;10.95;;;1.60;;
42590;SDS011;28218;53.342;-6.216;2022-10-30T05:33:02;5.70;;;1.25;;
42590;SDS011;28218;53.342;-6.216;2022-10-30T05:35:32;4.03;;;1.10;;
42590;SDS011;28218;53.342;-6.216;2022-10-30T05:38:02;7.68;;;1.20;;
42590;SDS011;28218;53.342;-6.216;2022-10-30T05:40:32;4.13;;;1.10;;
42590;SDS011;28218;53.342;-6.216;2022-10-30T05:43:03;6.40;;;1.05;;
42590;SDS011;28218;53.342;-6.216;2022-10-30T05:45:31;4.30;;;0.80;;
42590;SDS011;28218;53.342;-6.216;2022-10-30T05:48:00;1.77;;;0.43;;
42590;SDS011;28218;53.342;-6.216;2022-10-30T05:50:30;1.92;;;0.82;;
42590;SDS011;28218;53.342;-6.216;2022-10-30T05:52:59;1.35;;;0.40;;
42590;SDS011;28218;53.342;-6.216;2022-10-30T05:55:28;2.05;;;0.30;;
42590;SDS011;28218;53.342;-6.216;2022-10-30T05:57:58;0.20;;;0.20;;
42590;SDS011;28218;53.342;-6.216;2022-10-30T06:00:30;1.58;;;0.70;;
42590;SDS011;28218;53.342;-6.216;2022-10-30T06:02:59;1.83;;;0.45;;
42590;SDS011;28218;53.342;-6.216;2022-10-30T06:05:29;2.33;;;0.50;;
42590;SDS011;28218;53.342;-6.216;2022-10-30T06:07:58;1.95;;;0.40;;
42590;SDS011;28218;53.342;-6.216;2022-10-30T06:10:27;1.45;;;0.60;;
42590;SDS011;28218;53.342;-6.216;2022-10-30T06:12:56;2.85;;;0.38;;
42590;SDS011;28218;53.342;-6.216;2022-10-30T06:15:26;1.77;;;0.90;;
42590;SDS011;28218;53.342;-6.216;2022-10-30T06:17:57;1.85;;;0.55;;
42590;SDS011;28218;53.342;-6.216;2022-10-30T06:20:28;3.03;;;0.40;;
42590;SDS011;28218;53.342;-6.216;2022-10-30T06:22:57;1.38;;;0.40;;
42590;SDS011;28218;53.342;-6.216;2022-10-30T06:25:27;1.58;;;0.30;;
42590;SDS011;28218;53.342;-6.216;2022-10-30T06:27:56;1.50;;;0.50;;
42590;SDS011;28218;53.342;-6.216;2022-10-30T06:30:26;1.20;;;0.50;;
42590;SDS011;28218;53.342;-6.216;2022-10-30T06:32:56;3.45;;;0.60;;
42590;SDS011;28218;53.342;-6.216;2022-10-30T06:35:26;0.95;;;0.40;;
42590;SDS011;28218;53.342;-6.216;2022-10-30T06:37:55;4.50;;;0.70;;
42590;SDS011;28218;53.342;-6.216;2022-10-30T06:40:25;7.03;;;1.45;;
42590;SDS011;28218;53.342;-6.216;2022-10-30T06:42:55;3.47;;;0.93;;
42590;SDS011;28218;53.342;-6.216;2022-10-30T06:45:24;3.28;;;0.60;;
42590;SDS011;28218;53.342;-6.216;2022-10-30T06:47:52;2.80;;;1.08;;
42590;SDS011;28218;53.342;-6.216;2022-10-30T06:50:23;4.40;;;0.88;;
42590;SDS011;28218;53.342;-6.216;2022-10-30T06:52:51;3.70;;;0.98;;
42590;SDS011;28218;53.342;-6.216;2022-10-30T06:55:21;4.55;;;0.63;;
42590;SDS011;28218;53.342;-6.216;2022-10-30T06:57:52;7.78;;;0.93;;
42590;SDS011;28218;53.342;-6.216;2022-10-30T07:00:21;4.75;;;0.75;;
42590;SDS011;28218;53.342;-6.216;2022-10-30T07:02:53;8.93;;;2.00;;
42590;SDS011;28218;53.342;-6.216;2022-10-30T07:05:27;5.40;;;1.15;;
42590;SDS011;28218;53.342;-6.216;2022-10-30T07:07:56;7.78;;;1.05;;
42590;SDS011;28218;53.342;-6.216;2022-10-30T07:10:24;6.13;;;1.23;;
42590;SDS011;28218;53.342;-6.216;2022-10-30T07:12:54;10.30;;;1.83;;
42590;SDS011;28218;53.342;-6.216;2022-10-30T07:17:53;9.05;;;1.08;;
42590;SDS011;28218;53.342;-6.216;2022-10-30T07:20:23;10.95;;;1.35;;
42590;SDS011;28218;53.342;-6.216;2022-10-30T07:22:54;5.03;;;0.88;;
42590;SDS011;28218;53.342;-6.216;2022-10-30T07:25:22;6.30;;;1.10;;
42590;SDS011;28218;53.342;-6.216;2022-10-30T07:27:51;3.25;;;0.95;;
42590;SDS011;28218;53.342;-6.216;2022-10-30T07:30:21;4.63;;;1.30;;
42590;SDS011;28218;53.342;-6.216;2022-10-30T07:33:01;9.65;;;1.08;;
42590;SDS011;28218;53.342;-6.216;2022-10-30T07:35:31;5.70;;;1.17;;
42590;SDS011;28218;53.342;-6.216;2022-10-30T07:38:03;4.15;;;0.85;;
42590;SDS011;28218;53.342;-6.216;2022-10-30T07:40:33;5.35;;;1.77;;
42590;SDS011;28218;53.342;-6.216;2022-10-30T07:43:01;6.45;;;1.23;;
42590;SDS011;28218;53.342;-6.216;2022-10-30T07:45:30;11.77;;;1.33;;
42590;SDS011;28218;53.342;-6.216;2022-10-30T07:47:59;9.52;;;1.40;;
42590;SDS011;28218;53.342;-6.216;2022-10-30T07:50:28;10.80;;;2.63;;
42590;SDS011;28218;53.342;-6.216;2022-10-30T07:52:56;11.57;;;1.63;;
42590;SDS011;28218;53.342;-6.216;2022-10-30T07:55:26;6.18;;;1.52;;
42590;SDS011;28218;53.342;-6.216;2022-10-30T07:57:54;12.95;;;2.17;;
42590;SDS011;28218;53.342;-6.216;2022-10-30T08:00:24;6.13;;;1.25;;
42590;SDS011;28218;53.342;-6.216;2022-10-30T08:02:54;11.25;;;1.50;;
42590;SDS011;28218;53.342;-6.216;2022-10-30T08:05:24;8.15;;;1.50;;
42590;SDS011;28218;53.342;-6.216;2022-10-30T08:07:55;9.85;;;1.23;;
42590;SDS011;28218;53.342;-6.216;2022-10-30T08:10:24;6.38;;;1.42;;
42590;SDS011;28218;53.342;-6.216;2022-10-30T08:12:54;7.20;;;1.88;;
42590;SDS011;28218;53.342;-6.216;2022-10-30T08:15:22;7.20;;;1.77;;
42590;SDS011;28218;53.342;-6.216;2022-10-30T08:17:50;9.73;;;1.75;;
42590;SDS011;28218;53.342;-6.216;2022-10-30T08:20:19;8.38;;;1.50;;
42590;SDS011;28218;53.342;-6.216;2022-10-30T08:22:49;11.30;;;2.05;;
42590;SDS011;28218;53.342;-6.216;2022-10-30T08:25:18;8.38;;;1.15;;
42590;SDS011;28218;53.342;-6.216;2022-10-30T08:27:50;12.20;;;2.05;;
42590;SDS011;28218;53.342;-6.216;2022-10-30T08:30:21;9.07;;;1.48;;
42590;SDS011;28218;53.342;-6.216;2022-10-30T08:32:50;14.38;;;2.80;;
42590;SDS011;28218;53.342;-6.216;2022-10-30T08:35:18;16.85;;;1.98;;
42590;SDS011;28218;53.342;-6.216;2022-10-30T08:37:47;8.98;;;2.15;;
42590;SDS011;28218;53.342;-6.216;2022-10-30T08:40:15;11.90;;;2.35;;
42590;SDS011;28218;53.342;-6.216;2022-10-30T08:42:48;12.38;;;1.55;;
42590;SDS011;28218;53.342;-6.216;2022-10-30T08:45:17;12.98;;;2.13;;
42590;SDS011;28218;53.342;-6.216;2022-10-30T08:47:47;11.20;;;1.95;;
42590;SDS011;28218;53.342;-6.216;2022-10-30T08:50:24;9.77;;;1.58;;
42590;SDS011;28218;53.342;-6.216;2022-10-30T08:52:52;8.45;;;1.33;;
42590;SDS011;28218;53.342;-6.216;2022-10-30T08:55:20;13.38;;;1.80;;
42590;SDS011;28218;53.342;-6.216;2022-10-30T08:57:49;14.18;;;2.10;;
42590;SDS011;28218;53.342;-6.216;2022-10-30T09:00:17;7.07;;;1.40;;
42590;SDS011;28218;53.342;-6.216;2022-10-30T09:02:47;14.73;;;1.75;;
42590;SDS011;28218;53.342;-6.216;2022-10-30T09:05:15;17.85;;;2.60;;
42590;SDS011;28218;53.342;-6.216;2022-10-30T09:07:43;9.02;;;2.15;;
42590;SDS011;28218;53.342;-6.216;2022-10-30T09:10:12;13.98;;;2.58;;
42590;SDS011;28218;53.342;-6.216;2022-10-30T09:12:41;12.70;;;1.83;;
42590;SDS011;28218;53.342;-6.216;2022-10-30T09:15:09;14.90;;;2.47;;
42590;SDS011;28218;53.342;-6.216;2022-10-30T09:17:37;13.80;;;1.95;;
42590;SDS011;28218;53.342;-6.216;2022-10-30T09:20:07;13.35;;;2.25;;
42590;SDS011;28218;53.342;-6.216;2022-10-30T09:22:38;8.65;;;1.77;;
42590;SDS011;28218;53.342;-6.216;2022-10-30T09:25:07;17.15;;;2.05;;
42590;SDS011;28218;53.342;-6.216;2022-10-30T09:27:36;11.63;;;3.63;;
42590;SDS011;28218;53.342;-6.216;2022-10-30T09:30:05;12.10;;;2.13;;
42590;SDS011;28218;53.342;-6.216;2022-10-30T09:32:34;7.43;;;1.63;;
42590;SDS011;28218;53.342;-6.216;2022-10-30T09:35:02;11.18;;;2.13;;
42590;SDS011;28218;53.342;-6.216;2022-10-30T09:37:34;14.18;;;3.13;;
42590;SDS011;28218;53.342;-6.216;2022-10-30T09:40:03;16.33;;;2.10;;
42590;SDS011;28218;53.342;-6.216;2022-10-30T09:42:42;8.93;;;1.88;;
42590;SDS011;28218;53.342;-6.216;2022-10-30T09:45:25;8.68;;;2.08;;
42590;SDS011;28218;53.342;-6.216;2022-10-30T09:48:22;12.20;;;2.35;;
42590;SDS011;28218;53.342;-6.216;2022-10-30T09:51:11;11.95;;;2.25;;
42590;SDS011;28218;53.342;-6.216;2022-10-30T09:53:51;10.98;;;2.00;;
42590;SDS011;28218;53.342;-6.216;2022-10-30T09:56:29;12.57;;;3.97;;
42590;SDS011;28218;53.342;-6.216;2022-10-30T09:59:03;30.02;;;10.27;;
42590;SDS011;28218;53.342;-6.216;2022-10-30T10:01:45;32.30;;;13.13;;
42590;SDS011;28218;53.342;-6.216;2022-10-30T10:04:20;21.83;;;7.13;;
42590;SDS011;28218;53.342;-6.216;2022-10-30T10:06:54;27.35;;;8.27;;
42590;SDS011;28218;53.342;-6.216;2022-10-30T10:09:28;33.88;;;12.02;;
42590;SDS011;28218;53.342;-6.216;2022-10-30T10:12:00;160.40;;;55.40;;
42590;SDS011;28218;53.342;-6.216;2022-10-30T10:14:34;80.68;;;26.58;;
42590;SDS011;28218;53.342;-6.216;2022-10-30T10:17:08;99.07;;;39.17;;
42590;SDS011;28218;53.342;-6.216;2022-10-30T10:19:40;146.65;;;53.55;;
42590;SDS011;28218;53.342;-6.216;2022-10-30T10:22:18;269.15;;;82.55;;
42590;SDS011;28218;53.342;-6.216;2022-10-30T10:24:50;283.50;;;110.05;;
42590;SDS011;28218;53.342;-6.216;2022-10-30T10:27:22;132.73;;;50.63;;
42590;SDS011;28218;53.342;-6.216;2022-10-30T10:29:59;154.32;;;55.17;;
42590;SDS011;28218;53.342;-6.216;2022-10-30T10:32:37;218.73;;;79.28;;
42590;SDS011;28218;53.342;-6.216;2022-10-30T10:35:22;100.88;;;41.92;;
42590;SDS011;28218;53.342;-6.216;2022-10-30T10:38:01;66.10;;;24.40;;
42590;SDS011;28218;53.342;-6.216;2022-10-30T10:40:43;177.98;;;69.22;;
42590;SDS011;28218;53.342;-6.216;2022-10-30T10:43:22;153.07;;;53.83;;
42590;SDS011;28218;53.342;-6.216;2022-10-30T10:46:11;163.93;;;58.15;;
42590;SDS011;28218;53.342;-6.216;2022-10-30T10:48:56;291.08;;;106.35;;
42590;SDS011;28218;53.342;-6.216;2022-10-30T10:51:38;115.43;;;44.55;;
42590;SDS011;28218;53.342;-6.216;2022-10-30T10:54:09;126.93;;;47.40;;
42590;SDS011;28218;53.342;-6.216;2022-10-30T10:56:44;51.80;;;19.17;;
42590;SDS011;28218;53.342;-6.216;2022-10-30T10:59:15;23.55;;;6.95;;
42590;SDS011;28218;53.342;-6.216;2022-10-30T11:01:49;12.43;;;2.85;;
42590;SDS011;28218;53.342;-6.216;2022-10-30T11:04:25;13.50;;;1.98;;
42590;SDS011;28218;53.342;-6.216;2022-10-30T11:06:58;8.48;;;2.50;;
42590;SDS011;28218;53.342;-6.216;2022-10-30T11:09:38;6.85;;;1.10;;
42590;SDS011;28218;53.342;-6.216;2022-10-30T11:12:09;9.38;;;2.30;;
42590;SDS011;28218;53.342;-6.216;2022-10-30T11:14:38;9.07;;;2.28;;
42590;SDS011;28218;53.342;-6.216;2022-10-30T11:17:09;7.35;;;1.50;;
42590;SDS011;28218;53.342;-6.216;2022-10-30T11:19:46;7.45;;;1.30;;
42590;SDS011;28218;53.342;-6.216;2022-10-30T11:24:48;30.10;;;10.53;;
42590;SDS011;28218;53.342;-6.216;2022-10-30T11:27:22;32.53;;;10.30;;
42590;SDS011;28218;53.342;-6.216;2022-10-30T11:29:55;7.43;;;2.90;;
42590;SDS011;28218;53.342;-6.216;2022-10-30T11:32:26;8.75;;;1.60;;
42590;SDS011;28218;53.342;-6.216;2022-10-30T11:34:59;7.43;;;1.40;;
42590;SDS011;28218;53.342;-6.216;2022-10-30T11:37:30;17.10;;;5.88;;
42590;SDS011;28218;53.342;-6.216;2022-10-30T11:40:04;23.42;;;8.02;;
42590;SDS011;28218;53.342;-6.216;2022-10-30T11:42:35;20.38;;;5.03;;
42590;SDS011;28218;53.342;-6.216;2022-10-30T11:45:07;21.23;;;5.97;;
42590;SDS011;28218;53.342;-6.216;2022-10-30T11:47:42;8.75;;;2.47;;
42590;SDS011;28218;53.342;-6.216;2022-10-30T11:50:16;8.85;;;1.52;;
42590;SDS011;28218;53.342;-6.216;2022-10-30T11:52:46;7.93;;;1.85;;
42590;SDS011;28218;53.342;-6.216;2022-10-30T11:55:18;6.50;;;1.00;;
42590;SDS011;28218;53.342;-6.216;2022-10-30T11:57:51;11.35;;;1.65;;
42590;SDS011;28218;53.342;-6.216;2022-10-30T12:00:24;7.43;;;1.30;;
42590;SDS011;28218;53.342;-6.216;2022-10-30T12:02:54;4.20;;;1.02;;
42590;SDS011;28218;53.342;-6.216;2022-10-30T12:05:32;5.55;;;1.33;;
42590;SDS011;28218;53.342;-6.216;2022-10-30T12:08:15;5.18;;;1.00;;
42590;SDS011;28218;53.342;-6.216;2022-10-30T12:10:46;5.00;;;1.73;;
42590;SDS011;28218;53.342;-6.216;2022-10-30T12:13:24;4.45;;;1.00;;
42590;SDS011;28218;53.342;-6.216;2022-10-30T12:18:51;5.75;;;0.88;;
42590;SDS011;28218;53.342;-6.216;2022-10-30T12:21:24;5.13;;;1.23;;
42590;SDS011;28218;53.342;-6.216;2022-10-30T12:23:54;2.88;;;1.38;;
42590;SDS011;28218;53.342;-6.216;2022-10-30T12:26:26;3.13;;;0.80;;
42590;SDS011;28218;53.342;-6.216;2022-10-30T12:28:58;6.20;;;1.20;;
42590;SDS011;28218;53.342;-6.216;2022-10-30T12:31:33;5.15;;;1.02;;
42590;SDS011;28218;53.342;-6.216;2022-10-30T12:34:12;6.65;;;0.80;;
42590;SDS011;28218;53.342;-6.216;2022-10-30T12:36:51;3.17;;;0.95;;
42590;SDS011;28218;53.342;-6.216;2022-10-30T12:39:24;3.92;;;1.27;;
42590;SDS011;28218;53.342;-6.216;2022-10-30T12:41:58;4.93;;;1.02;;
42590;SDS011;28218;53.342;-6.216;2022-10-30T12:44:31;2.80;;;0.70;;
42590;SDS011;28218;53.342;-6.216;2022-10-30T12:47:03;5.95;;;1.23;;
42590;SDS011;28218;53.342;-6.216;2022-10-30T12:49:38;5.28;;;1.30;;
42590;SDS011;28218;53.342;-6.216;2022-10-30T12:52:09;5.10;;;0.90;;
42590;SDS011;28218;53.342;-6.216;2022-10-30T12:54:43;7.00;;;1.35;;
42590;SDS011;28218;53.342;-6.216;2022-10-30T12:57:17;7.57;;;1.20;;
42590;SDS011;28218;53.342;-6.216;2022-10-30T13:02:43;3.85;;;0.95;;
42590;SDS011;28218;53.342;-6.216;2022-10-30T13:05:27;3.08;;;0.88;;
42590;SDS011;28218;53.342;-6.216;2022-10-30T13:08:05;5.43;;;0.82;;
42590;SDS011;28218;53.342;-6.216;2022-10-30T13:10:42;5.03;;;1.00;;
42590;SDS011;28218;53.342;-6.216;2022-10-30T13:13:14;6.30;;;1.27;;
42590;SDS011;28218;53.342;-6.216;2022-10-30T13:15:48;5.20;;;1.00;;
42590;SDS011;28218;53.342;-6.216;2022-10-30T13:18:20;5.60;;;0.98;;
42590;SDS011;28218;53.342;-6.216;2022-10-30T13:21:07;4.00;;;1.05;;
42590;SDS011;28218;53.342;-6.216;2022-10-30T13:23:45;4.32;;;0.73;;
42590;SDS011;28218;53.342;-6.216;2022-10-30T13:26:21;1.60;;;0.70;;
42590;SDS011;28218;53.342;-6.216;2022-10-30T13:28:58;3.50;;;0.90;;
42590;SDS011;28218;53.342;-6.216;2022-10-30T13:31:36;9.15;;;1.00;;
42590;SDS011;28218;53.342;-6.216;2022-10-30T13:34:15;4.13;;;0.80;;
42590;SDS011;28218;53.342;-6.216;2022-10-30T13:36:54;8.23;;;1.63;;
42590;SDS011;28218;53.342;-6.216;2022-10-30T13:39:29;3.20;;;1.20;;
42590;SDS011;28218;53.342;-6.216;2022-10-30T13:45:11;5.22;;;1.02;;
42590;SDS011;28218;53.342;-6.216;2022-10-30T13:47:57;4.25;;;0.93;;
42590;SDS011;28218;53.342;-6.216;2022-10-30T13:50:36;4.25;;;1.08;;
42590;SDS011;28218;53.342;-6.216;2022-10-30T13:53:16;3.50;;;1.10;;
42590;SDS011;28218;53.342;-6.216;2022-10-30T13:55:48;4.25;;;1.38;;
42590;SDS011;28218;53.342;-6.216;2022-10-30T13:58:18;4.70;;;1.08;;
42590;SDS011;28218;53.342;-6.216;2022-10-30T14:00:55;5.28;;;1.15;;
42590;SDS011;28218;53.342;-6.216;2022-10-30T14:03:41;3.83;;;0.82;;
42590;SDS011;28218;53.342;-6.216;2022-10-30T14:06:20;5.72;;;1.50;;
42590;SDS011;28218;53.342;-6.216;2022-10-30T14:08:56;5.03;;;1.00;;
42590;SDS011;28218;53.342;-6.216;2022-10-30T14:11:32;3.55;;;0.80;;
42590;SDS011;28218;53.342;-6.216;2022-10-30T14:14:02;6.60;;;0.90;;
42590;SDS011;28218;53.342;-6.216;2022-10-30T14:16:33;6.47;;;1.10;;
42590;SDS011;28218;53.342;-6.216;2022-10-30T14:19:07;2.42;;;0.75;;
42590;SDS011;28218;53.342;-6.216;2022-10-30T14:24:13;5.43;;;0.95;;
42590;SDS011;28218;53.342;-6.216;2022-10-30T14:26:53;3.53;;;0.90;;
42590;SDS011;28218;53.342;-6.216;2022-10-30T14:38:15;4.20;;;0.80;;
42590;SDS011;28218;53.342;-6.216;2022-10-30T14:43:55;3.80;;;0.70;;
42590;SDS011;28218;53.342;-6.216;2022-10-30T14:46:33;5.88;;;0.77;;
42590;SDS011;28218;53.342;-6.216;2022-10-30T14:49:17;5.60;;;0.80;;
42590;SDS011;28218;53.342;-6.216;2022-10-30T14:52:06;5.10;;;0.60;;
42590;SDS011;28218;53.342;-6.216;2022-10-30T14:57:19;0.95;;;0.68;;
42590;SDS011;28218;53.342;-6.216;2022-10-30T14:59:48;2.30;;;0.60;;
42590;SDS011;28218;53.342;-6.216;2022-10-30T15:03:02;2.35;;;0.60;;
42590;SDS011;28218;53.342;-6.216;2022-10-30T15:05:38;0.90;;;0.40;;
42590;SDS011;28218;53.342;-6.216;2022-10-30T15:08:17;4.45;;;1.30;;
42590;SDS011;28218;53.342;-6.216;2022-10-30T15:11:08;3.42;;;0.80;;
42590;SDS011;28218;53.342;-6.216;2022-10-30T15:13:47;2.97;;;0.60;;
42590;SDS011;28218;53.342;-6.216;2022-10-30T15:16:19;1.98;;;0.80;;
42590;SDS011;28218;53.342;-6.216;2022-10-30T15:18:52;4.75;;;0.75;;
42590;SDS011;28218;53.342;-6.216;2022-10-30T15:21:24;3.72;;;0.82;;
42590;SDS011;28218;53.342;-6.216;2022-10-30T15:23:56;0.60;;;0.60;;
42590;SDS011;28218;53.342;-6.216;2022-10-30T15:26:30;3.40;;;0.90;;
42590;SDS011;28218;53.342;-6.216;2022-10-30T15:29:02;0.93;;;0.50;;
42590;SDS011;28218;53.342;-6.216;2022-10-30T15:31:32;3.50;;;0.80;;
42590;SDS011;28218;53.342;-6.216;2022-10-30T15:34:00;2.33;;;0.93;;